Auch, France

12:07 AM CEST on September 01, 2015 (GMT +0200)
IMIDIPYR17 | | Change Station
CLOSE
Current Station
Personal Weather Station
Location: Mirande, MIDI-PYReNeES
Elevation: 709 ft
Nearby Weather Stations

Elev 709 ft 43.52 °N, 0.39 °E | Updated 1 minute ago

Mostly Cloudy
Mostly Cloudy
65.1 °F
Feels Like 65.1 °F
N
0.0
Wind Variable Wind from South
Gusts 0.0 mph

Today
High -- | Low -- °F
--% Chance of Precip.
Yesterday
High -- | Low -- °F
Precip. -- in
7:20 AM 8:33 PM
Waning Gibbous, 93% visible
Pressure 29.98 in
Visibility 6.2 miles
Clouds Scattered Clouds 1000 ft
Mostly Cloudy 5200 ft
Mostly Cloudy 6600 ft
Dew Point 64 °F
Humidity 96%
Rainfall 0.00 in
Snow Depth Not available.
UV 0.0 out of 12
Pollen Not available.
Air Quality Not available.
Flu Activity Not available.
METAR LFBA 312200Z AUTO 16007KT 9999 SCT010/// BKN052/// BKN066/// ///TCU 20/18 Q1015
Pressure 29.98 in
Visibility 6.2 miles
Clouds Scattered Clouds 1000 ft
Mostly Cloudy 5200 ft
Mostly Cloudy 6600 ft
Dew Point 64 °F
Humidity 96%
Rainfall 0.00 in
Snow Depth Not available.
UV 0.0 out of 12
Pollen Not available.
Air Quality Not available.
Flu Activity Not available.
METAR LFBA 312200Z AUTO 16007KT 9999 SCT010/// BKN052/// BKN066/// ///TCU 20/18 Q1015

10-Day Weather Forecast

×

Almanac

Astronomy

Sep. 01, 2015 Rise Set
Actual Time
Civil Twilight
Nautical Twilight
Astronomical Twilight
Moon
Length of Visible Light
Length of Day
Tomorrow will be .
, % of the Moon is Illuminated

Today's Extremes

Country Highs Country Lows

Community

WunderPhotos

Upload Photos

1,851,389 photos uploaded!

WunderBlogs® & News

Nearby

Air Quality

  Air Quality AQ Index Pollutant
Not available.

Snow Depth

Station Depth Elevation

Earthquake Activity

City Distance Mag. Time & Date
Minimum magnitude displayed is 2.5.

Coastal Water Temperatures

Place Temperature

Stations

Nearby Weather Stations

Station Location Temp. Windchill Dew Point Humidity Wind Precip. Elev Updated Type